Aviation Digital Data Service (ADDS)

Output produced by TAFs form (1241 UTC 24 April 2018)
found at http://aviationweather.gov/adds/tafs/
 
METAR text: KPWA 241153Z 03003KT 9SM CLR 10/08 A3011 RMK AO2 SLP190 T01000083 10144 20089 53018
Conditions at: KPWA (OKLA CITY/WILEY , OK, US) observed 1153 UTC 24 April 2018
Temperature: 10.0°C (50°F)
Dewpoint: 8.3°C (47°F) [RH = 89%]
Pressure (altimeter): 30.11 inches Hg (1019.7 mb)
[Sea-level pressure: 1019.0 mb]
Winds: from the NNE (30 degrees) at 3 MPH (3 knots; 1.6 m/s)
Visibility: 9 miles (14 km)
Ceiling: at least 12,000 feet AGL
Clouds: sky clear below 12,000 feet AGL
Weather: no significant weather observed at this time